Terminal Aerodrome Forecast
Issued by NWS

Home | Current Version | Previous Version | Text Only | Print | Product List | Glossary Off
Versions: 1 2 3 4 5 6 7 8 9 10 11 12 13 14 15

000
FTUS43 KPAH 251729
TAFCGI
TAF
KCGI 251729Z 2518/2618 18013G21KT P6SM SCT250
     FM260000 17011KT P6SM SCT250
     FM260500 18011KT P6SM SCT060 BKN250 WS020/20040KT
     FM260900 17013G21KT P6SM BKN035
     FM261100 18014G22KT P6SM BKN025
     FM261400 18015G23KT P6SM BKN012=

USA.gov is the U.S. government's official web portal to all federal, state and local government web resources and services.